createdAt,value
2023-01-02T00:03:33.795Z,99748.34
2023-01-02T00:06:05.296Z,99764.63
2023-01-02T00:08:32.368Z,99756.66
2023-01-02T00:10:59.265Z,99766.28
2023-01-02T00:13:26.391Z,99755.63
2023-01-02T00:15:53.255Z,99740.59
2023-01-02T00:18:20.245Z,99752.78
2023-01-02T00:20:47.048Z,99734.16
2023-01-02T00:23:13.847Z,99719.28
2023-01-02T00:25:41.406Z,99724.69
2023-01-02T00:28:08.314Z,99725.00
2023-01-02T00:30:38.952Z,99722.16
2023-01-02T00:33:06.764Z,99725.63
2023-01-02T00:35:33.779Z,99709.50
2023-01-02T00:38:00.538Z,99710.00
2023-01-02T00:40:27.393Z,99706.50
2023-01-02T00:42:54.146Z,99704.94
2023-01-02T00:45:20.944Z,99713.44
2023-01-02T00:47:47.690Z,99711.72
2023-01-02T00:50:14.518Z,99707.63
2023-01-02T00:52:41.243Z,99711.41
2023-01-02T00:55:08.508Z,99691.06
2023-01-02T00:57:35.265Z,99693.91
2023-01-02T01:00:02.345Z,99701.91
2023-01-02T01:02:29.255Z,99691.91
2023-01-02T01:04:56.286Z,99698.50
2023-01-02T01:07:23.038Z,99704.22
2023-01-02T01:09:49.808Z,99697.72
2023-01-02T01:12:16.602Z,99701.16
2023-01-02T01:14:44.181Z,99708.94
2023-01-02T01:17:11.191Z,99703.81
2023-01-02T01:19:37.975Z,99707.31
2023-01-02T01:22:04.684Z,99710.72
2023-01-02T01:24:31.522Z,99715.50
2023-01-02T01:26:58.397Z,99704.75
2023-01-02T01:29:25.213Z,99705.59
2023-01-02T01:31:52.044Z,99700.22
2023-01-02T01:34:18.829Z,99711.91
2023-01-02T01:36:45.626Z,99709.44
2023-01-02T01:39:12.450Z,99704.91
2023-01-02T01:41:39.269Z,99703.13
2023-01-02T01:44:45.167Z,99703.72
2023-01-02T01:47:36.797Z,99700.38
2023-01-02T01:50:29.673Z,99699.53
2023-01-02T01:53:05.652Z,99679.34
2023-01-02T01:55:39.046Z,99689.38
2023-01-02T01:58:12.934Z,99679.19
2023-01-02T02:00:42.035Z,99683.28
2023-01-02T02:03:17.276Z,99681.56
2023-01-02T02:05:45.587Z,99693.47
2023-01-02T02:08:32.168Z,99699.69
2023-01-02T02:11:00.415Z,99689.34
2023-01-02T02:13:27.367Z,99685.19
2023-01-02T02:16:15.462Z,99686.97
2023-01-02T02:18:56.738Z,99668.81
2023-01-02T02:21:48.159Z,99696.53
2023-01-02T02:24:33.384Z,99702.09
2023-01-02T02:27:04.669Z,99701.41
2023-01-02T02:30:03.444Z,99695.00
2023-01-02T02:33:04.494Z,99682.84
2023-01-02T02:35:49.885Z,99699.69
2023-01-02T02:38:36.365Z,99694.91
2023-01-02T02:41:18.072Z,99689.69
2023-01-02T02:44:00.770Z,99688.94
2023-01-02T02:46:45.969Z,99699.28
2023-01-02T02:50:09.820Z,99686.53
2023-01-02T02:52:49.034Z,99697.91
2023-01-02T02:55:22.245Z,99688.31
2023-01-02T02:57:51.918Z,99672.78
2023-01-02T03:00:22.570Z,99685.25
2023-01-02T03:02:49.416Z,99691.06
2023-01-02T03:05:30.398Z,99691.25
2023-01-02T03:08:16.095Z,99694.13
2023-01-02T03:11:00.162Z,99703.97
2023-01-02T03:13:26.859Z,99710.38
2023-01-02T03:16:16.396Z,99703.19
2023-01-02T03:18:49.938Z,99702.44
2023-01-02T03:21:31.769Z,99693.13
2023-01-02T03:24:03.821Z,99691.16
2023-01-02T03:26:33.636Z,99682.69
2023-01-02T03:29:08.639Z,99697.66
2023-01-02T03:31:40.301Z,99710.47
2023-01-02T03:34:21.624Z,99715.03
2023-01-02T03:36:53.885Z,99698.34
2023-01-02T03:39:27.068Z,99711.69
2023-01-02T03:41:57.150Z,99713.47
2023-01-02T03:44:28.506Z,99699.78
2023-01-02T03:47:32.620Z,99715.00
2023-01-02T03:50:03.952Z,99704.75
2023-01-02T03:52:30.913Z,99702.09
2023-01-02T03:55:00.671Z,99703.03
2023-01-02T03:57:57.544Z,99708.25
2023-01-02T04:00:41.621Z,99693.63
2023-01-02T04:03:22.058Z,99702.00
2023-01-02T04:06:00.376Z,99692.50
2023-01-02T04:08:38.007Z,99697.91
2023-01-02T04:11:06.780Z,99701.94
2023-01-02T04:13:39.874Z,99706.13
2023-01-02T04:16:11.273Z,99699.44
2023-01-02T04:18:47.102Z,99710.06
2023-01-02T04:21:17.948Z,99705.69
2023-01-02T04:24:24.391Z,99708.94
2023-01-02T04:27:04.062Z,99713.47
2023-01-02T04:29:31.451Z,99716.34
2023-01-02T04:32:27.585Z,99728.09
2023-01-02T04:34:55.777Z,99723.13
2023-01-02T04:37:35.473Z,99726.28
2023-01-02T04:40:21.118Z,99727.31
2023-01-02T04:42:47.916Z,99735.06
2023-01-02T04:45:14.793Z,99725.94
2023-01-02T04:47:41.759Z,99728.16
2023-01-02T04:50:09.809Z,99742.72
2023-01-02T04:52:37.302Z,99733.31
2023-01-02T04:55:06.070Z,99746.00
2023-01-02T04:57:32.774Z,99747.69
2023-01-02T04:59:59.512Z,99729.63
2023-01-02T05:02:27.981Z,99758.41
2023-01-02T05:04:54.807Z,99732.63
2023-01-02T05:07:21.531Z,99734.31
2023-01-02T05:09:48.272Z,99739.69
2023-01-02T05:12:15.010Z,99751.75
2023-01-02T05:14:41.790Z,99746.03
2023-01-02T05:17:08.535Z,99751.81
2023-01-02T05:19:35.638Z,99762.00
2023-01-02T05:22:21.083Z,99760.03
2023-01-02T05:24:47.774Z,99762.97
2023-01-02T05:27:14.496Z,99767.56
2023-01-02T05:29:41.332Z,99749.53
2023-01-02T05:32:08.096Z,99747.63
2023-01-02T05:34:34.830Z,99743.53
2023-01-02T05:37:01.575Z,99739.94
2023-01-02T05:39:28.249Z,99757.22
2023-01-02T05:41:55.131Z,99746.00
2023-01-02T05:44:21.903Z,99761.31
2023-01-02T05:46:48.685Z,99739.84
2023-01-02T05:49:15.519Z,99748.50
2023-01-02T05:51:42.252Z,99763.38
2023-01-02T05:54:09.220Z,99732.41
2023-01-02T05:56:36.078Z,99765.19
2023-01-02T05:59:08.057Z,99755.84
2023-01-02T06:01:35.317Z,99753.88
2023-01-02T06:04:02.548Z,99758.78
2023-01-02T06:06:47.751Z,99762.09
2023-01-02T06:09:15.964Z,99754.47
2023-01-02T06:11:43.228Z,99741.66
2023-01-02T06:14:12.809Z,99750.56
2023-01-02T06:16:40.252Z,99757.75
2023-01-02T06:19:07.596Z,99751.69
2023-01-02T06:21:34.734Z,99764.09
2023-01-02T06:24:01.561Z,99746.75
2023-01-02T06:26:34.653Z,99737.44
2023-01-02T06:29:02.471Z,99748.38
2023-01-02T06:31:29.906Z,99744.66
2023-01-02T06:34:01.520Z,99742.31
2023-01-02T06:36:34.687Z,99756.06
2023-01-02T06:39:02.063Z,99742.44
2023-01-02T06:41:28.932Z,99739.69
2023-01-02T06:43:55.829Z,99739.00
2023-01-02T06:46:23.871Z,99749.25
2023-01-02T06:48:51.099Z,99746.00
2023-01-02T06:51:20.679Z,99746.53
2023-01-02T06:53:47.702Z,99745.25
2023-01-02T06:56:17.063Z,99758.19
2023-01-02T06:58:44.204Z,99741.50
2023-01-02T07:01:14.412Z,99743.97
2023-01-02T07:03:41.859Z,99761.34
2023-01-02T07:06:14.783Z,99750.63
2023-01-02T07:08:43.466Z,99762.22
2023-01-02T07:11:22.585Z,99768.38
2023-01-02T07:13:52.902Z,99767.16
2023-01-02T07:16:21.401Z,99770.75
2023-01-02T07:18:48.755Z,99770.84
2023-01-02T07:21:18.231Z,99775.03
2023-01-02T07:23:45.128Z,99770.31
2023-01-02T07:26:12.641Z,99769.06
2023-01-02T07:28:39.618Z,99740.59
2023-01-02T07:31:09.319Z,99767.16
2023-01-02T07:33:36.245Z,99762.78
2023-01-02T07:36:15.394Z,99770.41
2023-01-02T07:38:42.139Z,99742.47
2023-01-02T07:41:16.864Z,99769.78
2023-01-02T07:43:45.067Z,99756.88
2023-01-02T07:46:13.205Z,99770.00
2023-01-02T07:48:40.073Z,99764.94
2023-01-02T07:51:08.120Z,99768.06
2023-01-02T07:53:35.671Z,99777.84
2023-01-02T07:56:03.481Z,99771.75
2023-01-02T07:58:31.098Z,99780.31
2023-01-02T08:01:05.117Z,99770.28
2023-01-02T08:03:32.907Z,99723.59
2023-01-02T08:06:04.987Z,99760.03
2023-01-02T08:08:31.851Z,99771.50
2023-01-02T08:10:58.646Z,99752.44
2023-01-02T08:13:25.361Z,99743.41
2023-01-02T08:15:52.177Z,99704.88
2023-01-02T08:18:18.878Z,99756.41
2023-01-02T08:20:45.649Z,99748.25
2023-01-02T08:23:12.555Z,99746.06
2023-01-02T08:25:39.316Z,99765.13
2023-01-02T08:28:06.128Z,99757.56
2023-01-02T08:30:32.913Z,99766.75
2023-01-02T08:33:01.149Z,99749.66
2023-01-02T08:35:37.901Z,99754.13
2023-01-02T08:38:05.501Z,99766.22
2023-01-02T08:40:32.269Z,99752.66
2023-01-02T08:42:59.055Z,99743.66
2023-01-02T08:45:25.828Z,99755.34
2023-01-02T08:47:52.808Z,99768.13
2023-01-02T08:50:19.813Z,99748.94
2023-01-02T08:52:46.531Z,99755.50
2023-01-02T08:55:13.571Z,99758.84
2023-01-02T08:57:40.477Z,99706.09
2023-01-02T09:00:07.866Z,99756.56
2023-01-02T09:02:35.770Z,99757.13
2023-01-02T09:05:02.682Z,99747.25
2023-01-02T09:07:32.531Z,99760.16
2023-01-02T09:09:59.856Z,99747.72
2023-01-02T09:12:26.865Z,99766.47
2023-01-02T09:14:53.594Z,99770.44
2023-01-02T09:17:20.362Z,99775.28
2023-01-02T09:19:47.268Z,99757.34
2023-01-02T09:22:14.070Z,99765.69
2023-01-02T09:24:41.815Z,99774.22
2023-01-02T09:27:08.661Z,99772.72
2023-01-02T09:29:35.412Z,99772.63
2023-01-02T09:32:02.148Z,99736.72
2023-01-02T09:34:28.985Z,99714.63
2023-01-02T09:36:55.738Z,99741.63
2023-01-02T09:39:26.948Z,99761.75
2023-01-02T09:42:00.410Z,99738.56
2023-01-02T09:44:33.568Z,99745.81
2023-01-02T09:47:12.408Z,99753.59
2023-01-02T09:49:49.953Z,99754.34
2023-01-02T09:52:19.886Z,99744.88
2023-01-02T09:54:46.769Z,99726.97
2023-01-02T09:57:28.980Z,99748.63
2023-01-02T10:00:01.765Z,99745.63
2023-01-02T10:03:08.543Z,99744.84
2023-01-02T10:05:47.508Z,99734.47
2023-01-02T10:08:42.522Z,99724.19
2023-01-02T10:11:28.061Z,99721.16
2023-01-02T10:16:55.104Z,99700.81
2023-01-02T10:19:39.994Z,99706.34
2023-01-02T10:22:10.076Z,99712.84
2023-01-02T10:24:40.388Z,99717.75
2023-01-02T10:27:13.531Z,99707.66
2023-01-02T10:29:45.762Z,99702.97
2023-01-02T10:32:20.741Z,99684.09
2023-01-02T10:35:03.514Z,99691.69
2023-01-02T10:37:30.339Z,99689.47
2023-01-02T10:39:58.039Z,99699.47
2023-01-02T10:42:25.598Z,99692.94
2023-01-02T10:44:52.645Z,99685.81
2023-01-02T10:47:19.901Z,99703.06
2023-01-02T10:49:50.138Z,99695.09
2023-01-02T10:52:43.675Z,99685.72
2023-01-02T10:55:10.395Z,99691.25
2023-01-02T10:57:51.583Z,99672.22
2023-01-02T11:00:22.591Z,99669.66
2023-01-02T11:02:57.750Z,99667.19
2023-01-02T11:05:27.817Z,99652.28
2023-01-02T11:07:55.410Z,99660.41
2023-01-02T11:10:40.441Z,99656.13
2023-01-02T11:13:16.009Z,99656.34
2023-01-02T11:15:57.039Z,99647.28
2023-01-02T11:18:30.977Z,99639.19
2023-01-02T11:21:04.457Z,99618.28
2023-01-02T11:23:57.141Z,99652.50
2023-01-02T11:26:26.346Z,99640.56
2023-01-02T11:28:55.797Z,99639.59
2023-01-02T11:31:23.727Z,99638.84
2023-01-02T11:33:50.523Z,99625.84
2023-01-02T11:36:20.037Z,99628.94
2023-01-02T11:38:51.903Z,99623.72
2023-01-02T11:42:22.560Z,99627.88
2023-01-02T11:45:11.748Z,99624.69
2023-01-02T11:47:51.257Z,99613.38
2023-01-02T11:50:34.096Z,99615.94
2023-01-02T11:53:25.217Z,99613.19
2023-01-02T11:56:33.606Z,99609.56
2023-01-02T11:59:12.057Z,99611.44
2023-01-02T12:01:50.443Z,99609.72
2023-01-02T12:04:17.566Z,99603.31
2023-01-02T12:07:04.836Z,99610.69
2023-01-02T12:09:51.978Z,99624.97
2023-01-02T12:12:30.966Z,99627.53
2023-01-02T12:15:18.698Z,99618.25
2023-01-02T12:18:26.617Z,99604.84
2023-01-02T12:21:19.452Z,99609.19
2023-01-02T12:24:07.409Z,99607.81
2023-01-02T12:26:55.106Z,99605.66
2023-01-02T12:29:47.177Z,99600.75
2023-01-02T12:32:42.296Z,99604.91
2023-01-02T12:35:37.285Z,99606.84
2023-01-02T12:38:07.864Z,99603.00
2023-01-02T12:41:02.248Z,99611.75
2023-01-02T12:43:50.113Z,99587.06
2023-01-02T12:46:32.179Z,99611.09
2023-01-02T12:49:14.243Z,99614.19
2023-01-02T12:52:03.614Z,99621.44
2023-01-02T12:54:46.503Z,99603.16
2023-01-02T12:57:34.590Z,99617.97
2023-01-02T13:00:39.495Z,99611.56
2023-01-02T13:03:06.297Z,99603.66
2023-01-02T13:05:44.390Z,99598.47
2023-01-02T13:08:20.125Z,99598.69
2023-01-02T13:10:47.561Z,99587.38
2023-01-02T13:13:15.569Z,99601.78
2023-01-02T13:15:47.745Z,99600.59
2023-01-02T13:18:21.879Z,99604.75
2023-01-02T13:20:58.613Z,99612.09
2023-01-02T13:23:34.823Z,99614.44
2023-01-02T13:26:11.195Z,99613.16
2023-01-02T13:28:42.508Z,99598.16
2023-01-02T13:31:45.415Z,99605.06
2023-01-02T13:34:05.713Z,99607.94
2023-01-02T13:36:46.221Z,99603.03
2023-01-02T13:39:23.982Z,99597.75
2023-01-02T13:42:15.109Z,99613.91
2023-01-02T13:44:46.376Z,99609.00
2023-01-02T13:47:24.463Z,99617.13
2023-01-02T13:50:17.419Z,99617.97
2023-01-02T13:53:02.567Z,99618.38
2023-01-02T13:55:35.077Z,99608.28
2023-01-02T13:58:18.459Z,99643.09
2023-01-02T14:00:54.327Z,99629.06
2023-01-02T14:03:24.128Z,99637.47
2023-01-02T14:06:00.263Z,99638.84
2023-01-02T14:08:34.751Z,99642.50
2023-01-02T14:11:55.536Z,99646.84
2023-01-02T14:14:27.572Z,99647.38
2023-01-02T14:17:12.077Z,99651.88
2023-01-02T14:19:39.676Z,99640.34
2023-01-02T14:22:14.096Z,99638.44
2023-01-02T14:24:46.493Z,99647.47
2023-01-02T14:27:16.273Z,99660.78
2023-01-02T14:29:52.495Z,99664.31
2023-01-02T14:32:44.288Z,99662.50
2023-01-02T14:35:11.061Z,99657.28
2023-01-02T14:37:43.520Z,99659.19
2023-01-02T14:40:38.193Z,99654.41
2023-01-02T14:43:31.484Z,99655.03
2023-01-02T14:46:04.674Z,99653.88
2023-01-02T14:48:58.577Z,99657.84
2023-01-02T14:51:37.051Z,99660.81
2023-01-02T14:54:17.166Z,99663.38
2023-01-02T14:56:48.864Z,99670.94
2023-01-02T14:59:41.205Z,99656.66
2023-01-02T15:02:18.097Z,99645.47
2023-01-02T15:04:55.722Z,99681.38
2023-01-02T15:07:36.962Z,99680.63
2023-01-02T15:10:20.169Z,99682.88
2023-01-02T15:13:06.730Z,99685.31
2023-01-02T15:15:40.710Z,99682.22
2023-01-02T15:18:28.744Z,99693.19
2023-01-02T15:21:02.811Z,99691.06
2023-01-02T15:23:30.113Z,99672.81
2023-01-02T15:26:32.378Z,99696.19
2023-01-02T15:28:43.948Z,99709.94
2023-01-02T15:31:16.041Z,99718.03
2023-01-02T15:33:43.067Z,99715.38
2023-01-02T15:36:33.020Z,99718.44
2023-01-02T15:39:26.806Z,99721.03
2023-01-02T15:41:57.481Z,99724.44
2023-01-02T15:44:46.231Z,99734.75
2023-01-02T15:47:14.792Z,99733.59
2023-01-02T15:49:44.057Z,99752.66
2023-01-02T15:52:30.637Z,99759.81
2023-01-02T15:54:58.674Z,99767.88
2023-01-02T15:57:28.609Z,99752.47
2023-01-02T15:59:56.224Z,99770.16
2023-01-02T16:02:44.626Z,99779.19
2023-01-02T16:05:20.803Z,99774.16
2023-01-02T16:07:55.817Z,99784.50
2023-01-02T16:10:26.207Z,99789.53
2023-01-02T16:13:34.589Z,99797.91
2023-01-02T16:16:16.158Z,99810.94
2023-01-02T16:18:49.432Z,99802.84
2023-01-02T16:21:17.334Z,99808.25
2023-01-02T16:23:52.064Z,99814.44
2023-01-02T16:26:23.908Z,99818.56
2023-01-02T16:28:51.450Z,99828.50
2023-01-02T16:31:22.047Z,99844.03
2023-01-02T16:33:49.162Z,99837.56
2023-01-02T16:36:15.963Z,99852.84
2023-01-02T16:38:53.151Z,99850.66
2023-01-02T16:41:37.319Z,99857.69
2023-01-02T16:44:12.448Z,99858.47
2023-01-02T16:46:40.735Z,99873.09
2023-01-02T16:49:11.629Z,99883.31
2023-01-02T16:51:42.866Z,99878.38
2023-01-02T16:54:13.975Z,99883.78
2023-01-02T16:56:41.518Z,99889.31
2023-01-02T16:59:08.374Z,99881.47
2023-01-02T17:01:35.978Z,99893.34
2023-01-02T17:04:02.912Z,99889.84
2023-01-02T17:06:29.844Z,99899.84
2023-01-02T17:08:56.568Z,99906.41
2023-01-02T17:11:24.825Z,99907.16
2023-01-02T17:13:52.837Z,99924.75
2023-01-02T17:16:20.224Z,99938.41
2023-01-02T17:18:47.370Z,99942.03
2023-01-02T17:21:14.671Z,99933.38
2023-01-02T17:23:41.671Z,99934.97
2023-01-02T17:26:08.537Z,99941.66
2023-01-02T17:28:35.414Z,99947.25
2023-01-02T17:31:02.327Z,99948.59
2023-01-02T17:33:29.156Z,99953.63
2023-01-02T17:35:56.905Z,99960.72
2023-01-02T17:38:23.718Z,99952.38
2023-01-02T17:40:56.783Z,99965.00
2023-01-02T17:43:23.627Z,99959.03
2023-01-02T17:45:50.688Z,99970.16
2023-01-02T17:48:23.901Z,99967.31
2023-01-02T17:50:52.919Z,99959.63
2023-01-02T17:53:21.157Z,99942.00
2023-01-02T17:56:20.665Z,99962.19
2023-01-02T17:58:39.981Z,99960.28
2023-01-02T18:01:06.993Z,99964.34
2023-01-02T18:03:33.931Z,99976.13
2023-01-02T18:06:05.370Z,99981.06
2023-01-02T18:08:32.703Z,99968.72
2023-01-02T18:10:59.704Z,99975.75
2023-01-02T18:13:28.544Z,99984.69
2023-01-02T18:15:55.497Z,99963.31
2023-01-02T18:18:25.065Z,99968.44
2023-01-02T18:20:52.932Z,99982.41
2023-01-02T18:23:19.817Z,99942.59
2023-01-02T18:25:46.885Z,99974.81
2023-01-02T18:28:24.710Z,99957.53
2023-01-02T18:30:58.829Z,99968.06
2023-01-02T18:33:28.159Z,99962.75
2023-01-02T18:36:06.261Z,99952.28
2023-01-02T18:38:37.916Z,99968.81
2023-01-02T18:41:17.930Z,99977.47
2023-01-02T18:43:46.254Z,99967.00
2023-01-02T18:46:19.390Z,99981.28
2023-01-02T18:48:46.871Z,99977.94
2023-01-02T18:51:20.415Z,99989.72
2023-01-02T18:53:52.755Z,99976.78
2023-01-02T18:56:27.661Z,99989.91
2023-01-02T18:59:06.951Z,99998.47
2023-01-02T19:01:41.140Z,99996.09
2023-01-02T19:04:20.529Z,99998.66
2023-01-02T19:06:53.968Z,99997.97
2023-01-02T19:09:25.695Z,100002.09
2023-01-02T19:12:39.487Z,100005.13
2023-01-02T19:15:43.924Z,99993.06
2023-01-02T19:18:13.971Z,100006.06
2023-01-02T19:20:45.100Z,100005.78
2023-01-02T19:23:48.018Z,100014.34
2023-01-02T19:26:33.200Z,100003.22
2023-01-02T19:29:09.609Z,100011.69
2023-01-02T19:32:00.353Z,100015.88
2023-01-02T19:34:40.556Z,100010.44
2023-01-02T19:37:13.875Z,100008.22
2023-01-02T19:40:06.610Z,100015.56
2023-01-02T19:42:35.532Z,100001.81
2023-01-02T19:45:04.672Z,100016.28
2023-01-02T19:47:35.113Z,100008.06
2023-01-02T19:50:02.973Z,100023.84
2023-01-02T19:52:30.383Z,100008.78
2023-01-02T19:54:59.578Z,100021.28
2023-01-02T19:57:27.562Z,100028.31
2023-01-02T19:59:56.371Z,100020.31
2023-01-02T20:02:25.895Z,100031.84
2023-01-02T20:04:55.864Z,100021.59
2023-01-02T20:07:25.201Z,100017.59
2023-01-02T20:09:53.448Z,100008.84
2023-01-02T20:12:30.430Z,100006.31
2023-01-02T20:14:59.455Z,100020.41
2023-01-02T20:17:29.037Z,100012.88
2023-01-02T20:19:57.425Z,100013.75
2023-01-02T20:22:24.689Z,100005.06
2023-01-02T20:24:53.296Z,100008.97
2023-01-02T20:27:21.128Z,100003.00
2023-01-02T20:29:50.091Z,100022.56
2023-01-02T20:32:18.415Z,100017.69
2023-01-02T20:34:47.177Z,100013.78
2023-01-02T20:37:15.962Z,100002.31
2023-01-02T20:39:46.526Z,100007.13
2023-01-02T20:42:13.977Z,100013.31
2023-01-02T20:44:41.378Z,100023.00
2023-01-02T20:47:09.064Z,100023.50
2023-01-02T20:49:37.030Z,100023.94
2023-01-02T20:52:04.900Z,100027.34
2023-01-02T20:54:33.948Z,100019.13
2023-01-02T20:57:03.065Z,100021.88
2023-01-02T20:59:30.962Z,100028.72
2023-01-02T21:01:58.641Z,100024.09
2023-01-02T21:04:34.169Z,100026.59
2023-01-02T21:07:05.934Z,100013.91
2023-01-02T21:09:33.657Z,100003.91
2023-01-02T21:12:01.143Z,100015.72
2023-01-02T21:14:32.452Z,100033.72
2023-01-02T21:17:04.286Z,100043.50
2023-01-02T21:19:31.530Z,100037.25
2023-01-02T21:21:59.055Z,100021.59
2023-01-02T21:24:26.374Z,100023.75
2023-01-02T21:26:53.887Z,100024.72
2023-01-02T21:29:20.939Z,100033.09
2023-01-02T21:31:48.440Z,100038.69
2023-01-02T21:34:15.450Z,100033.47
2023-01-02T21:36:42.376Z,100013.28
2023-01-02T21:39:10.082Z,100017.69
2023-01-02T21:41:55.965Z,100033.72
2023-01-02T21:44:22.686Z,100026.38
2023-01-02T21:46:49.477Z,100029.44
2023-01-02T21:49:16.287Z,100050.09
2023-01-02T21:51:42.992Z,100052.06
2023-01-02T21:54:09.774Z,100066.72
2023-01-02T21:56:36.493Z,100057.81
2023-01-02T21:59:03.276Z,100050.22
2023-01-02T22:01:30.189Z,100072.34
2023-01-02T22:03:57.521Z,100072.69
2023-01-02T22:06:24.417Z,100046.97
2023-01-02T22:08:51.285Z,100071.34
2023-01-02T22:11:36.920Z,100068.41
2023-01-02T22:14:03.675Z,100077.22
2023-01-02T22:16:31.232Z,100068.81
2023-01-02T22:18:58.072Z,100071.22
2023-01-02T22:21:24.867Z,100030.00
2023-01-02T22:23:51.665Z,100080.06
2023-01-02T22:26:18.579Z,100075.94
2023-01-02T22:28:45.348Z,100061.81
2023-01-02T22:31:12.169Z,100065.16
2023-01-02T22:33:39.243Z,100081.69
2023-01-02T22:36:06.603Z,100069.53
2023-01-02T22:38:34.030Z,100064.56
2023-01-02T22:41:02.456Z,100077.91
2023-01-02T22:43:34.668Z,100091.38
2023-01-02T22:46:06.559Z,100083.13
2023-01-02T22:48:38.243Z,100076.97
2023-01-02T22:51:09.132Z,100089.81
2023-01-02T22:53:37.605Z,100087.28
2023-01-02T22:56:19.323Z,100094.53
2023-01-02T22:58:47.599Z,100088.72
2023-01-02T23:01:33.485Z,100103.28
2023-01-02T23:04:00.747Z,100096.50
2023-01-02T23:06:27.916Z,100078.59
2023-01-02T23:08:55.019Z,100072.34
2023-01-02T23:11:22.987Z,100069.94
2023-01-02T23:13:56.074Z,100088.03
2023-01-02T23:16:42.224Z,100087.28
2023-01-02T23:19:14.969Z,100077.91
2023-01-02T23:21:44.566Z,100080.16
2023-01-02T23:24:13.189Z,100066.97
2023-01-02T23:26:43.260Z,100061.66
2023-01-02T23:29:11.081Z,100078.34
2023-01-02T23:31:40.395Z,100067.38
2023-01-02T23:34:08.822Z,100088.88
2023-01-02T23:36:37.164Z,100098.69
2023-01-02T23:39:06.221Z,100090.72
2023-01-02T23:41:33.546Z,100096.84
2023-01-02T23:44:00.368Z,100072.25
2023-01-02T23:46:27.313Z,100074.81
2023-01-02T23:48:54.083Z,100082.81
2023-01-02T23:51:20.890Z,100086.13
2023-01-02T23:53:48.189Z,100087.75
2023-01-02T23:56:24.193Z,100084.22
2023-01-02T23:58:53.556Z,100096.22
